Time,TemperatureF,DewpointF,PressureIn,WindDirection,WindDirectionDegrees,WindSpeedMPH,WindSpeedGustMPH,Humidity,HourlyPrecipIn,Conditions,Clouds,dailyrainin,SolarRadiationWatts/m^2,SoftwareType,DateUTC
2013-01-24 00:13:00,25.3,15.0,30.46,NE,40,5.0,10.0,66,0.00,,,0.00,0,weatherlink.com 1.10,2013-01-24 06:13:00,
2013-01-24 00:28:00,24.8,15.0,30.47,NE,55,4.0,10.0,67,0.00,,,0.00,0,weatherlink.com 1.10,2013-01-24 06:28:00,
2013-01-24 00:43:00,24.3,15.0,30.47,NE,41,3.0,7.0,68,0.00,,,0.00,0,weatherlink.com 1.10,2013-01-24 06:43:00,
2013-01-24 00:58:00,23.9,15.0,30.47,NE,44,3.0,9.0,69,0.00,,,0.00,0,weatherlink.com 1.10,2013-01-24 06:58:00,
2013-01-24 01:13:00,23.5,14.0,30.47,NE,43,5.0,8.0,68,0.00,,,0.00,0,weatherlink.com 1.10,2013-01-24 07:13:00,
2013-01-24 01:28:00,23.0,14.0,30.48,ENE,62,4.0,12.0,67,0.00,,,0.00,0,weatherlink.com 1.10,2013-01-24 07:28:00,
2013-01-24 01:43:00,22.4,12.0,30.48,ENE,59,3.0,8.0,65,0.00,,,0.00,0,weatherlink.com 1.10,2013-01-24 07:43:00,
2013-01-24 01:58:00,21.7,9.0,30.49,NE,39,4.0,13.0,58,0.00,,,0.00,0,weatherlink.com 1.10,2013-01-24 07:58:00,
2013-01-24 02:13:00,21.2,9.0,30.50,NNE,30,4.0,10.0,60,0.00,,,0.00,0,weatherlink.com 1.10,2013-01-24 08:13:00,
2013-01-24 02:28:00,20.7,10.0,30.50,ENE,57,3.0,11.0,64,0.00,,,0.00,0,weatherlink.com 1.10,2013-01-24 08:28:00,
2013-01-24 02:44:00,19.9,8.0,30.51,NNE,29,4.0,12.0,61,0.00,,,0.00,0,weatherlink.com 1.10,2013-01-24 08:44:00,
2013-01-24 02:59:00,19.3,8.0,30.50,ENE,62,4.0,12.0,61,0.00,,,0.00,0,weatherlink.com 1.10,2013-01-24 08:59:00,
2013-01-24 03:14:00,18.8,7.0,30.49,ENE,60,5.0,12.0,61,0.00,,,0.00,0,weatherlink.com 1.10,2013-01-24 09:14:00,
2013-01-24 03:29:00,18.4,7.0,30.50,ENE,60,2.0,9.0,61,0.00,,,0.00,0,weatherlink.com 1.10,2013-01-24 09:29:00,
2013-01-24 03:44:00,17.8,6.0,30.50,NE,54,4.0,11.0,61,0.00,,,0.00,0,weatherlink.com 1.10,2013-01-24 09:44:00,
2013-01-24 03:59:00,17.3,5.0,30.50,ENE,63,4.0,14.0,60,0.00,,,0.00,0,weatherlink.com 1.10,2013-01-24 09:59:00,
2013-01-24 04:14:00,16.8,5.0,30.50,ENE,60,3.0,15.0,61,0.00,,,0.00,0,weatherlink.com 1.10,2013-01-24 10:14:00,
2013-01-24 04:29:00,16.3,5.0,30.50,North,5,6.0,8.0,62,0.00,,,0.00,0,weatherlink.com 1.10,2013-01-24 10:29:00,
2013-01-24 04:44:00,15.8,5.0,30.50,NNE,32,8.0,12.0,63,0.00,,,0.00,0,weatherlink.com 1.10,2013-01-24 10:44:00,
2013-01-24 04:59:00,15.3,5.0,30.50,ENE,57,5.0,11.0,64,0.00,,,0.00,0,weatherlink.com 1.10,2013-01-24 10:59:00,
2013-01-24 05:14:00,14.9,5.0,30.50,NNE,32,4.0,8.0,66,0.00,,,0.00,0,weatherlink.com 1.10,2013-01-24 11:14:00,
2013-01-24 05:29:00,14.6,5.0,30.50,NE,53,6.0,8.0,66,0.00,,,0.00,0,weatherlink.com 1.10,2013-01-24 11:29:00,
2013-01-24 05:44:00,14.2,5.0,30.49,ENE,69,3.0,7.0,68,0.00,,,0.00,0,weatherlink.com 1.10,2013-01-24 11:44:00,
2013-01-24 05:59:00,13.9,5.0,30.49,ENE,57,3.0,10.0,68,0.00,,,0.00,0,weatherlink.com 1.10,2013-01-24 11:59:00,
2013-01-24 06:14:00,13.8,5.0,30.49,ENE,69,8.0,13.0,67,0.00,,,0.00,0,weatherlink.com 1.10,2013-01-24 12:14:00,
2013-01-24 06:29:00,13.6,5.0,30.49,ENE,59,5.0,11.0,67,0.00,,,0.00,0,weatherlink.com 1.10,2013-01-24 12:29:00,
2013-01-24 06:44:00,13.3,4.0,30.50,ENE,63,5.0,11.0,67,0.00,,,0.00,0,weatherlink.com 1.10,2013-01-24 12:44:00,
2013-01-24 06:59:00,13.1,4.0,30.52,NNE,32,3.0,10.0,66,0.00,,,0.00,0,weatherlink.com 1.10,2013-01-24 12:59:00,
2013-01-24 07:14:00,12.7,3.0,30.53,ENE,78,9.0,11.0,65,0.00,,,0.00,0,weatherlink.com 1.10,2013-01-24 13:14:00,
2013-01-24 07:29:00,12.3,3.0,30.52,East,89,11.0,13.0,65,0.00,,,0.00,0,weatherlink.com 1.10,2013-01-24 13:29:00,
2013-01-24 07:44:00,11.9,2.0,30.51,ENE,62,5.0,15.0,65,0.00,,,0.00,9,weatherlink.com 1.10,2013-01-24 13:44:00,
2013-01-24 07:59:00,11.7,2.0,30.52,ESE,122,7.0,14.0,65,0.00,,,0.00,30,weatherlink.com 1.10,2013-01-24 13:59:00,
2013-01-24 08:14:00,11.7,2.0,30.51,ENE,65,3.0,12.0,65,0.00,,,0.00,62,weatherlink.com 1.10,2013-01-24 14:14:00,
2013-01-24 08:29:00,12.1,2.0,30.52,East,97,8.0,8.0,65,0.00,,,0.00,83,weatherlink.com 1.10,2013-01-24 14:29:00,
2013-01-24 08:44:00,12.3,3.0,30.51,ENE,67,9.0,11.0,65,0.00,,,0.00,104,weatherlink.com 1.10,2013-01-24 14:44:00,
2013-01-24 08:59:00,12.8,3.0,30.52,NE,53,4.0,10.0,64,0.00,,,0.00,102,weatherlink.com 1.10,2013-01-24 14:59:00,
2013-01-24 09:15:00,13.2,3.0,30.54,NE,44,5.0,8.0,63,0.00,,,0.00,144,weatherlink.com 1.10,2013-01-24 15:15:00,
2013-01-24 09:30:00,13.6,3.0,30.53,NE,40,6.0,11.0,62,0.00,,,0.00,193,weatherlink.com 1.10,2013-01-24 15:30:00,
2013-01-24 09:45:00,14.5,3.0,30.54,NNE,25,4.0,12.0,61,0.00,,,0.00,269,weatherlink.com 1.10,2013-01-24 15:45:00,
2013-01-24 10:00:00,15.4,4.0,30.54,NE,55,6.0,12.0,60,0.00,,,0.00,313,weatherlink.com 1.10,2013-01-24 16:00:00,
2013-01-24 10:15:00,15.9,3.0,30.52,NE,34,8.0,12.0,58,0.00,,,0.00,359,weatherlink.com 1.10,2013-01-24 16:15:00,
2013-01-24 10:30:00,16.1,4.0,30.52,NE,55,6.0,14.0,58,0.00,,,0.00,364,weatherlink.com 1.10,2013-01-24 16:30:00,
2013-01-24 10:45:00,17.2,4.0,30.52,East,90,6.0,12.0,56,0.00,,,0.00,322,weatherlink.com 1.10,2013-01-24 16:45:00,
2013-01-24 11:00:00,17.9,5.0,30.51,ENE,58,5.0,14.0,56,0.00,,,0.00,448,weatherlink.com 1.10,2013-01-24 17:00:00,
2013-01-24 11:15:00,18.9,5.0,30.51,East,81,3.0,10.0,54,0.00,,,0.00,462,weatherlink.com 1.10,2013-01-24 17:15:00,
2013-01-24 11:30:00,20.5,5.0,30.51,NE,55,6.0,9.0,52,0.00,,,0.00,476,weatherlink.com 1.10,2013-01-24 17:30:00,
2013-01-24 11:45:00,21.6,5.0,30.50,ENE,73,8.0,10.0,49,0.00,,,0.00,399,weatherlink.com 1.10,2013-01-24 17:45:00,
2013-01-24 12:00:00,22.9,6.0,30.47,ENE,65,2.0,11.0,48,0.00,,,0.00,668,weatherlink.com 1.10,2013-01-24 18:00:00,
2013-01-24 12:15:00,22.7,5.0,30.46,NE,43,6.0,9.0,47,0.00,,,0.00,336,weatherlink.com 1.10,2013-01-24 18:15:00,
2013-01-24 12:30:00,22.9,5.0,30.45,East,101,8.0,10.0,46,0.00,,,0.00,348,weatherlink.com 1.10,2013-01-24 18:30:00,
2013-01-24 12:45:00,23.3,5.0,30.43,East,90,2.0,8.0,45,0.00,,,0.00,258,weatherlink.com 1.10,2013-01-24 18:45:00,
2013-01-24 13:00:00,23.2,5.0,30.40,NE,55,2.0,12.0,45,0.00,,,0.00,241,weatherlink.com 1.10,2013-01-24 19:00:00,
2013-01-24 13:15:00,23.9,5.0,30.40,East,82,5.0,10.0,44,0.00,,,0.00,304,weatherlink.com 1.10,2013-01-24 19:15:00,
2013-01-24 13:30:00,24.1,5.0,30.38,East,84,8.0,9.0,44,0.00,,,0.00,297,weatherlink.com 1.10,2013-01-24 19:30:00,
2013-01-24 13:45:00,24.7,5.0,30.37,ESE,121,3.0,9.0,43,0.00,,,0.00,299,weatherlink.com 1.10,2013-01-24 19:45:00,
2013-01-24 14:00:00,25.6,6.0,30.37,NE,40,4.0,15.0,43,0.00,,,0.00,462,weatherlink.com 1.10,2013-01-24 20:00:00,
2013-01-24 14:16:00,25.6,6.0,30.36,ESE,123,2.0,11.0,43,0.00,,,0.00,325,weatherlink.com 1.10,2013-01-24 20:16:00,
2013-01-24 14:31:00,26.3,5.0,30.34,East,97,5.0,9.0,41,0.00,,,0.00,267,weatherlink.com 1.10,2013-01-24 20:31:00,
2013-01-24 14:46:00,26.8,6.0,30.34,NE,46,6.0,9.0,41,0.00,,,0.00,211,weatherlink.com 1.10,2013-01-24 20:46:00,
2013-01-24 15:01:00,27.4,6.0,30.34,East,82,7.0,8.0,41,0.00,,,0.00,276,weatherlink.com 1.10,2013-01-24 21:01:00,
2013-01-24 15:16:00,27.3,6.0,30.34,ESE,115,8.0,9.0,41,0.00,,,0.00,199,weatherlink.com 1.10,2013-01-24 21:16:00,
2013-01-24 15:31:00,27.1,6.0,30.33,East,87,6.0,8.0,41,0.00,,,0.00,109,weatherlink.com 1.10,2013-01-24 21:31:00,
2013-01-24 15:46:00,27.0,6.0,30.30,East,86,6.0,11.0,41,0.00,,,0.00,83,weatherlink.com 1.10,2013-01-24 21:46:00,
2013-01-24 16:01:00,27.1,7.0,30.31,East,94,3.0,11.0,42,0.00,,,0.00,58,weatherlink.com 1.10,2013-01-24 22:01:00,
2013-01-24 16:16:00,27.2,7.0,30.30,East,80,3.0,7.0,43,0.00,,,0.00,56,weatherlink.com 1.10,2013-01-24 22:16:00,
2013-01-24 16:31:00,27.0,7.0,30.30,ENE,78,2.0,8.0,43,0.00,,,0.00,28,weatherlink.com 1.10,2013-01-24 22:31:00,
2013-01-24 16:46:00,27.0,8.0,30.30,East,92,3.0,5.0,44,0.00,,,0.00,18,weatherlink.com 1.10,2013-01-24 22:46:00,
2013-01-24 17:01:00,26.8,7.0,30.29,East,98,3.0,8.0,44,0.00,,,0.00,18,weatherlink.com 1.10,2013-01-24 23:01:00,
2013-01-24 17:16:00,26.6,8.0,30.29,ENE,71,3.0,9.0,45,0.00,,,0.00,7,weatherlink.com 1.10,2013-01-24 23:16:00,
2013-01-24 17:31:00,26.6,8.0,30.30,ENE,69,3.0,5.0,46,0.00,,,0.00,0,weatherlink.com 1.10,2013-01-24 23:31:00,
2013-01-24 17:46:00,26.4,9.0,30.29,ENE,78,3.0,7.0,47,0.00,,,0.00,0,weatherlink.com 1.10,2013-01-24 23:46:00,
2013-01-24 18:01:00,26.3,8.0,30.28,East,98,5.0,6.0,47,0.00,,,0.00,0,weatherlink.com 1.10,2013-01-25 00:01:00,
2013-01-24 18:16:00,26.1,8.0,30.27,NE,46,5.0,10.0,47,0.00,,,0.00,0,weatherlink.com 1.10,2013-01-25 00:16:00,
2013-01-24 18:31:00,26.1,9.0,30.28,NE,49,4.0,8.0,48,0.00,,,0.00,0,weatherlink.com 1.10,2013-01-25 00:31:00,
2013-01-24 18:46:00,26.1,9.0,30.28,East,90,5.0,8.0,48,0.00,,,0.00,0,weatherlink.com 1.10,2013-01-25 00:46:00,
2013-01-24 19:01:00,26.1,9.0,30.27,ENE,73,7.0,8.0,48,0.00,,,0.00,0,weatherlink.com 1.10,2013-01-25 01:01:00,
2013-01-24 19:16:00,26.2,9.0,30.27,ENE,63,2.0,7.0,49,0.00,,,0.00,0,weatherlink.com 1.10,2013-01-25 01:16:00,
2013-01-24 19:31:00,26.3,9.0,30.30,ENE,63,2.0,6.0,49,0.00,,,0.00,0,weatherlink.com 1.10,2013-01-25 01:31:00,
2013-01-24 19:46:00,26.3,9.0,30.28,East,96,3.0,7.0,49,0.00,,,0.00,0,weatherlink.com 1.10,2013-01-25 01:46:00,
2013-01-24 20:01:00,26.4,9.0,30.27,East,98,1.0,5.0,49,0.00,,,0.00,0,weatherlink.com 1.10,2013-01-25 02:01:00,
2013-01-24 20:16:00,26.4,9.0,30.27,ESE,110,2.0,8.0,49,0.00,,,0.00,0,weatherlink.com 1.10,2013-01-25 02:16:00,
2013-01-24 20:31:00,26.5,10.0,30.27,ESE,107,1.0,7.0,49,0.00,,,0.00,0,weatherlink.com 1.10,2013-01-25 02:31:00,
2013-01-24 20:46:00,26.6,10.0,30.27,ESE,106,1.0,3.0,50,0.00,,,0.00,0,weatherlink.com 1.10,2013-01-25 02:46:00,
2013-01-24 21:01:00,26.6,10.0,30.26,ESE,107,0.0,3.0,50,0.00,,,0.00,0,weatherlink.com 1.10,2013-01-25 03:01:00,
2013-01-24 21:16:00,26.6,10.0,30.24,East,101,2.0,5.0,50,0.00,,,0.00,0,weatherlink.com 1.10,2013-01-25 03:16:00,
2013-01-24 21:31:00,26.7,10.0,30.25,East,97,1.0,5.0,50,0.00,,,0.00,0,weatherlink.com 1.10,2013-01-25 03:31:00,
2013-01-24 21:46:00,26.7,10.0,30.25,East,86,3.0,6.0,50,0.00,,,0.00,0,weatherlink.com 1.10,2013-01-25 03:46:00,
2013-01-24 22:01:00,26.8,11.0,30.24,East,80,0.0,6.0,51,0.00,,,0.00,0,weatherlink.com 1.10,2013-01-25 04:01:00,
2013-01-24 22:16:00,26.8,11.0,30.25,East,80,1.0,3.0,51,0.00,,,0.00,0,weatherlink.com 1.10,2013-01-25 04:16:00,
2013-01-24 22:31:00,26.9,11.0,30.23,East,80,0.0,2.0,51,0.00,,,0.00,0,weatherlink.com 1.10,2013-01-25 04:31:00,
2013-01-24 22:46:00,26.9,11.0,30.23,East,80,2.0,3.0,52,0.00,,,0.00,0,weatherlink.com 1.10,2013-01-25 04:46:00,
2013-01-24 23:01:00,27.0,11.0,30.22,East,82,0.0,4.0,52,0.00,,,0.00,0,weatherlink.com 1.10,2013-01-25 05:01:00,
2013-01-24 23:16:00,27.0,11.0,30.23,East,98,0.0,3.0,52,0.00,,,0.00,0,weatherlink.com 1.10,2013-01-25 05:16:00,
2013-01-24 23:31:00,27.1,11.0,30.24,East,98,2.0,2.0,52,0.00,,,0.00,0,weatherlink.com 1.10,2013-01-25 05:31:00,
2013-01-24 23:46:00,27.2,12.0,30.23,East,98,1.0,3.0,52,0.00,,,0.00,0,weatherlink.com 1.10,2013-01-25 05:46:00,